Mc Faddin, Texas
Current Conditions -  °F | °C
As of 9:55 PM on Wednesday 22 Oct 2014 (Local Time) from KPKV Reporting Station
Clear Clear  
Wind Chill: 72°   Ceiling: Unl
Heat Index: 72°   Visibility: 10mi
Dew Point: 64°   Wind: 7mph
Humidity: 76%   Direction: 100°E
Pressure: 30.08"   Gusts: NA
Location:  28.5526°N, 97.018°W
Report Text: KPKV 230255Z AUTO 10006KT 10SM CLR 22/18 A3008 RMK AO2 T02200175
Loading
Personal Weather Stations






























Interactive Weather Map
Tropical Storm Tracking
New forecast layout! Learn more

10-Day Weather Forecast

Advertisements
Track Severe Weather on mobile